Time;durP1;ratioP1;P1;durP2;ratioP2;P2;SDS_P1;SDS_P2;PMS_P1;PMS_P2;Temp;Humidity;BMP_temperature;BMP_pressure;BME280_temperature;BME280_humidity;BME280_pressure;Samples;Min_cycle;Max_cycle;Signal;HPM_P1;HPM_P2
2021/10/09 00:00:53;;;;;;;39.87;24.73;;;;;;;7.82;100.00;102732.88;2106620;28;20013;-66
2021/10/09 00:01:53;;;;;;;43.30;25.63;;;;;;;7.81;100.00;102731.16;2107065;28;20031;-68
2021/10/09 00:02:53;;;;;;;44.57;25.20;;;;;;;7.80;100.00;102726.84;2107000;28;20056;-66
2021/10/09 00:03:54;;;;;;;43.10;24.97;;;;;;;7.78;100.00;102723.38;2107295;28;20020;-67
2021/10/09 00:04:54;;;;;;;44.13;24.55;;;;;;;7.76;100.00;102728.56;2107338;28;20085;-66
2021/10/09 00:05:54;;;;;;;44.90;26.77;;;;;;;7.78;100.00;102725.97;2106498;28;20088;-67
2021/10/09 00:06:54;;;;;;;46.03;24.80;;;;;;;7.76;100.00;102727.72;2106463;28;20125;-67
2021/10/09 00:07:55;;;;;;;44.43;25.03;;;;;;;7.76;100.00;102733.75;2106636;28;20028;-66
2021/10/09 00:08:55;;;;;;;47.50;26.90;;;;;;;7.73;100.00;102724.22;2107069;28;20036;-68
2021/10/09 00:09:59;;;;;;;47.93;26.57;;;;;;;7.76;100.00;102730.31;2106979;28;20504;-67
2021/10/09 00:11:01;;;;;;;42.63;25.48;;;;;;;7.73;100.00;102732.03;2107059;28;20109;-68
2021/10/09 00:12:01;;;;;;;44.22;26.13;;;;;;;7.71;100.00;102725.97;2107257;28;20043;-67
2021/10/09 00:13:01;;;;;;;49.23;27.33;;;;;;;7.72;100.00;102727.72;2107370;28;20055;-68
2021/10/09 00:14:06;;;;;;;45.58;26.55;;;;;;;7.71;100.00;102725.97;2107436;28;20032;-67
2021/10/09 00:15:07;;;;;;;48.95;28.27;;;;;;;7.69;100.00;102725.09;2107226;28;20027;-67
2021/10/09 00:16:07;;;;;;;42.10;27.38;;;;;;;7.69;100.00;102727.69;2106940;28;20389;-67
2021/10/09 00:17:09;;;;;;;47.17;28.30;;;;;;;7.68;100.00;102728.56;2106411;28;20051;-67
2021/10/09 00:18:09;;;;;;;49.30;28.50;;;;;;;7.68;100.00;102731.16;2105984;28;20023;-67
2021/10/09 00:19:10;;;;;;;52.07;30.60;;;;;;;7.69;100.00;102732.91;2106776;28;20490;-67
2021/10/09 00:20:11;;;;;;;45.03;29.08;;;;;;;7.68;100.00;102732.91;2106675;28;20503;-68
2021/10/09 00:21:11;;;;;;;55.20;29.40;;;;;;;7.65;100.00;102736.38;2106706;28;20031;-66
2021/10/09 00:22:11;;;;;;;51.80;30.40;;;;;;;7.66;100.00;102730.28;2106651;28;20020;-68
2021/10/09 00:23:11;;;;;;;47.53;26.53;;;;;;;7.58;100.00;102729.44;2107098;28;20443;-68
2021/10/09 00:24:16;;;;;;;50.70;28.33;;;;;;;7.57;100.00;102732.91;2106940;28;20055;-68
2021/10/09 00:25:17;;;;;;;50.03;29.25;;;;;;;7.57;100.00;102727.69;2107026;28;20020;-67
2021/10/09 00:26:17;;;;;;;47.77;28.77;;;;;;;7.56;100.00;102725.97;2107177;28;20020;-67
2021/10/09 00:27:18;;;;;;;50.63;27.85;;;;;;;7.57;100.00;102727.69;2107337;28;20488;-68
2021/10/09 00:28:18;;;;;;;49.90;28.47;;;;;;;7.57;100.00;102728.56;2107007;28;20077;-66
2021/10/09 00:29:18;;;;;;;48.80;28.43;;;;;;;7.56;100.00;102723.38;2106484;28;20020;-67
2021/10/09 00:30:19;;;;;;;46.57;28.43;;;;;;;7.59;100.00;102728.56;2106357;28;20526;-68
2021/10/09 00:31:19;;;;;;;49.40;27.60;;;;;;;7.57;100.00;102725.94;2106337;28;20031;-67
2021/10/09 00:32:19;;;;;;;46.57;27.90;;;;;;;7.54;100.00;102717.31;2098247;28;20029;-68
2021/10/09 00:33:20;;;;;;;47.10;29.40;;;;;;;7.51;100.00;102720.78;2106522;28;20317;-67
2021/10/09 00:34:20;;;;;;;46.40;27.13;;;;;;;7.52;100.00;102719.91;2106610;28;20052;-68
2021/10/09 00:35:20;;;;;;;46.40;27.03;;;;;;;7.51;100.00;102719.88;2106779;28;20073;-68
2021/10/09 00:36:21;;;;;;;47.00;29.20;;;;;;;7.54;100.00;102727.69;2106672;28;20020;-67
2021/10/09 00:37:21;;;;;;;48.60;27.47;;;;;;;7.53;100.00;102724.22;2107127;28;20420;-67
2021/10/09 00:38:21;;;;;;;57.50;30.57;;;;;;;7.52;100.00;102724.25;2107335;28;20020;-67
2021/10/09 00:39:21;;;;;;;48.30;27.60;;;;;;;7.50;100.00;102720.75;2107095;28;20020;-68
2021/10/09 00:40:22;;;;;;;49.73;28.13;;;;;;;7.47;100.00;102722.47;2107086;28;20035;-69
2021/10/09 00:41:22;;;;;;;45.03;28.57;;;;;;;7.46;100.00;102715.56;2107111;28;20054;-69
2021/10/09 00:42:23;;;;;;;50.47;28.73;;;;;;;7.46;100.00;102718.16;2106986;28;20023;-68
2021/10/09 00:43:23;;;;;;;46.13;30.03;;;;;;;7.44;100.00;102717.31;2105933;28;20064;-68
2021/10/09 00:44:23;;;;;;;51.23;29.07;;;;;;;7.45;100.00;102723.34;2106029;28;20316;-68
2021/10/09 00:45:24;;;;;;;53.57;32.30;;;;;;;7.42;100.00;102713.81;2106559;28;20024;-68
2021/10/09 00:46:24;;;;;;;52.00;28.47;;;;;;;7.42;100.00;102719.03;2107069;28;20024;-68
2021/10/09 00:47:25;;;;;;;57.67;29.90;;;;;;;7.44;100.00;102717.31;2106501;28;20032;-68
2021/10/09 00:48:26;;;;;;;52.97;30.10;;;;;;;7.47;100.00;102717.28;2105910;28;20103;-67
2021/10/09 00:49:26;;;;;;;48.23;29.77;;;;;;;7.48;100.00;102715.56;2105954;28;20032;-68
2021/10/09 00:50:27;;;;;;;56.25;32.80;;;;;;;7.46;100.00;102718.16;2105703;28;20028;-69
2021/10/09 00:51:27;;;;;;;47.40;27.73;;;;;;;7.45;100.00;102713.84;2105929;28;20440;-68
2021/10/09 00:52:29;;;;;;;54.73;31.70;;;;;;;7.40;100.00;102709.50;2106461;28;20090;-68
2021/10/09 00:53:31;;;;;;;51.72;30.95;;;;;;;7.38;100.00;102706.91;2106431;28;20452;-68
2021/10/09 00:54:35;;;;;;;48.92;30.00;;;;;;;7.36;100.00;102708.63;2105634;28;20019;-68
2021/10/09 00:55:35;;;;;;;51.95;29.13;;;;;;;7.34;100.00;102705.16;2106262;28;20039;-69
2021/10/09 00:56:36;;;;;;;43.92;26.13;;;;;;;7.36;100.00;102703.44;2106655;28;20020;-68
2021/10/09 00:57:40;;;;;;;52.58;29.60;;;;;;;7.37;100.00;102709.50;2106707;28;20439;-67
2021/10/09 00:58:44;;;;;;;50.78;27.63;;;;;;;7.34;100.00;102711.22;2106413;28;20016;-68
2021/10/09 00:59:47;;;;;;;51.60;29.55;;;;;;;7.37;100.00;102709.50;2106599;28;20106;-68
2021/10/09 01:00:48;;;;;;;50.40;29.20;;;;;;;7.37;100.00;102709.50;2106545;28;20111;-68
2021/10/09 01:01:50;;;;;;;46.67;26.10;;;;;;;7.38;100.00;102709.50;2106716;28;20429;-68
2021/10/09 01:02:51;;;;;;;53.92;28.85;;;;;;;7.35;100.00;102709.47;2105655;28;20480;-68
2021/10/09 01:03:51;;;;;;;43.35;24.92;;;;;;;7.34;100.00;102706.03;2106003;28;20040;-68
2021/10/09 01:04:52;;;;;;;50.33;27.00;;;;;;;7.34;100.00;102707.75;2106360;28;20098;-68
2021/10/09 01:05:53;;;;;;;50.45;26.55;;;;;;;7.32;100.00;102705.16;2106778;28;20236;-68
2021/10/09 01:06:53;;;;;;;46.70;26.23;;;;;;;7.32;100.00;102709.47;2107076;28;20473;-68
2021/10/09 01:07:53;;;;;;;50.03;25.30;;;;;;;7.31;100.00;102710.34;2107100;28;20020;-67
2021/10/09 01:08:53;;;;;;;51.13;27.17;;;;;;;7.29;100.00;102706.91;2106943;28;20176;-68
2021/10/09 01:09:54;;;;;;;45.63;25.43;;;;;;;7.31;100.00;102715.53;2106564;28;20107;-68
2021/10/09 01:10:54;;;;;;;46.40;26.23;;;;;;;7.32;100.00;102707.75;2106861;28;20173;-68
2021/10/09 01:11:55;;;;;;;44.20;24.87;;;;;;;7.29;100.00;102705.16;2106878;28;20031;-68
2021/10/09 01:12:57;;;;;;;43.30;24.20;;;;;;;7.32;100.00;102706.88;2106955;28;20114;-68
2021/10/09 01:13:58;;;;;;;42.03;24.02;;;;;;;7.34;100.00;102713.84;2106297;28;20039;-68
2021/10/09 01:14:58;;;;;;;47.55;24.23;;;;;;;7.32;100.00;102712.06;2106152;28;20059;-68
2021/10/09 01:15:58;;;;;;;48.90;24.90;;;;;;;7.35;100.00;102712.09;2106660;28;20099;-67
2021/10/09 01:16:59;;;;;;;40.17;23.27;;;;;;;7.38;100.00;102712.09;2106989;28;20499;-68
2021/10/09 01:18:10;;;;;;;50.07;25.70;;;;;;;7.38;100.00;102714.69;2106982;28;20023;-68
2021/10/09 01:19:11;;;;;;;41.75;24.77;;;;;;;7.34;100.00;102712.97;2106520;28;20366;-68
2021/10/09 01:20:12;;;;;;;50.40;27.33;;;;;;;7.30;100.00;102709.50;2106177;28;20027;-67
2021/10/09 01:21:12;;;;;;;48.28;28.27;;;;;;;7.30;100.00;102713.81;2106248;28;20393;-68
2021/10/09 01:22:13;;;;;;;48.73;27.90;;;;;;;7.28;100.00;102712.94;2105612;28;20020;-67
2021/10/09 01:23:13;;;;;;;48.53;25.40;;;;;;;7.25;100.00;102707.75;2105821;28;20477;-68
2021/10/09 01:24:15;;;;;;;49.20;25.80;;;;;;;7.27;100.00;102708.59;2106461;28;20516;-68
2021/10/09 01:25:15;;;;;;;;;;;;;;;7.24;100.00;102709.47;2107403;28;20280;-69
2021/10/09 01:26:16;;;;;;;43.70;23.90;;;;;;;7.22;100.00;102706.88;2106068;28;19955;-69
2021/10/09 01:27:16;;;;;;;51.22;25.60;;;;;;;7.24;100.00;102708.59;2106528;28;20051;-68
2021/10/09 01:28:17;;;;;;;48.53;24.45;;;;;;;7.19;100.00;102706.88;2106854;28;20111;-68
2021/10/09 01:29:17;;;;;;;48.63;25.33;;;;;;;7.19;100.00;102701.66;2106747;28;20027;-68
2021/10/09 01:30:17;;;;;;;46.03;24.73;;;;;;;7.17;100.00;102703.41;2106450;28;20396;-68
2021/10/09 01:31:18;;;;;;;48.43;24.13;;;;;;;7.19;100.00;102706.88;2105633;28;20049;-69
2021/10/09 01:32:19;;;;;;;43.88;24.27;;;;;;;7.18;100.00;102705.13;2105678;28;20088;-68
2021/10/09 01:33:19;;;;;;;45.57;26.80;;;;;;;7.16;100.00;102701.69;2106056;28;20020;-69
2021/10/09 01:34:21;;;;;;;41.23;21.73;;;;;;;7.14;100.00;102703.41;2106317;28;20466;-68
2021/10/09 01:35:21;;;;;;;44.95;25.10;;;;;;;7.13;100.00;102704.28;2106144;28;20028;-68
2021/10/09 01:36:22;;;;;;;42.90;24.63;;;;;;;7.12;100.00;102699.91;2106352;28;20016;-68
2021/10/09 01:37:22;;;;;;;48.77;25.40;;;;;;;7.14;100.00;102712.91;2105454;28;20066;-69
2021/10/09 01:38:25;;;;;;;43.07;23.13;;;;;;;7.12;100.00;102712.91;2105834;28;20039;-69
2021/10/09 01:39:26;;;;;;;46.42;25.35;;;;;;;7.09;100.00;102702.53;2106708;28;20030;-68
2021/10/09 01:40:26;;;;;;;45.03;25.77;;;;;;;7.09;100.00;102702.53;2106353;28;20020;-69
2021/10/09 01:41:27;;;;;;;45.90;24.33;;;;;;;7.07;100.00;102702.53;2106059;28;20069;-69
2021/10/09 01:42:27;;;;;;;48.45;25.13;;;;;;;7.07;100.00;102704.25;2106088;28;20027;-69
2021/10/09 01:43:28;;;;;;;49.03;26.70;;;;;;;7.05;100.00;102708.59;2106250;28;20439;-69
2021/10/09 01:44:28;;;;;;;45.80;24.85;;;;;;;7.05;100.00;102703.41;2105395;28;20028;-69
2021/10/09 01:45:28;;;;;;;44.00;24.63;;;;;;;7.05;100.00;102699.03;2106134;28;20020;-69
2021/10/09 01:46:28;;;;;;;47.23;24.63;;;;;;;7.02;100.00;102703.38;2106816;28;20413;-69
2021/10/09 01:47:29;;;;;;;46.03;22.37;;;;;;;7.02;100.00;102698.19;2106786;28;20020;-69
2021/10/09 01:48:32;;;;;;;38.40;19.23;;;;;;;7.04;100.00;102693.84;2106786;28;20107;-68
2021/10/09 01:49:32;;;;;;;45.78;24.95;;;;;;;7.04;100.00;102697.31;2106621;28;20019;-68
2021/10/09 01:50:33;;;;;;;46.20;23.33;;;;;;;7.06;100.00;102702.53;2106015;28;20445;-69
2021/10/09 01:51:34;;;;;;;45.45;24.85;;;;;;;7.04;100.00;102709.44;2105283;28;20059;-69
2021/10/09 01:52:34;;;;;;;50.67;26.48;;;;;;;7.03;100.00;102697.31;2105501;28;20027;-68
2021/10/09 01:53:35;;;;;;;47.92;24.92;;;;;;;7.01;100.00;102696.47;2105971;28;20469;-68
2021/10/09 01:54:36;;;;;;;46.85;23.13;;;;;;;6.97;100.00;102698.16;2106458;28;20027;-69
2021/10/09 01:55:38;;;;;;;49.17;24.63;;;;;;;6.96;100.00;102704.22;2105455;28;20148;-69
2021/10/09 01:56:39;;;;;;;52.88;23.92;;;;;;;6.94;100.00;102709.41;2097627;28;20555;-69
2021/10/09 01:57:39;;;;;;;40.17;23.88;;;;;;;6.91;100.00;102699.00;2106039;28;20078;-69
2021/10/09 01:58:39;;;;;;;45.53;24.93;;;;;;;6.88;100.00;102704.19;2106629;28;20069;-68
2021/10/09 01:59:40;;;;;;;49.40;23.60;;;;;;;6.87;100.00;102699.88;2106768;28;20024;-69
2021/10/09 02:00:40;;;;;;;45.23;23.53;;;;;;;6.89;100.00;102694.69;2105829;28;20497;-69
2021/10/09 02:01:40;;;;;;;43.80;25.57;;;;;;;6.95;100.00;102702.50;2106232;28;20469;-69
2021/10/09 02:02:41;;;;;;;41.57;21.80;;;;;;;6.97;100.00;102699.91;2106488;28;20027;-69
2021/10/09 02:03:41;;;;;;;46.37;24.33;;;;;;;6.97;100.00;102702.50;2106505;28;20024;-69
2021/10/09 02:04:41;;;;;;;50.83;23.83;;;;;;;6.99;100.00;102703.38;2106011;28;20035;-69
2021/10/09 02:05:41;;;;;;;48.67;24.60;;;;;;;6.99;100.00;102703.38;2105502;28;20424;-69
2021/10/09 02:06:42;;;;;;;45.00;24.83;;;;;;;6.98;100.00;102699.03;2105995;28;20016;-68
2021/10/09 02:07:42;;;;;;;50.53;23.57;;;;;;;6.93;100.00;102694.72;2105914;28;20016;-68
2021/10/09 02:08:44;;;;;;;47.47;25.27;;;;;;;6.92;100.00;102697.28;2105383;28;20027;-68
2021/10/09 02:09:44;;;;;;;49.75;25.42;;;;;;;6.92;100.00;102699.91;2106006;28;20023;-68
2021/10/09 02:10:54;;;;;;;47.95;25.60;;;;;;;6.92;100.00;102692.94;2106066;28;20046;-69
2021/10/09 02:11:54;;;;;;;45.70;23.48;;;;;;;6.87;100.00;102688.63;2105647;28;20020;-68
2021/10/09 02:12:55;;;;;;;44.20;23.60;;;;;;;6.85;100.00;102699.00;2105853;28;20484;-68
2021/10/09 02:15:02;;;;;;;42.67;22.83;;;;;;;6.77;100.00;102687.75;2106840;28;20485;-68
2021/10/09 02:16:13;;;;;;;44.60;23.27;;;;;;;6.77;100.00;102687.75;2107244;28;20032;-68
2021/10/09 02:17:46;;;;;;;47.95;24.88;;;;;;;6.79;100.00;102693.78;2107437;28;20481;-69
2021/10/09 02:25:29;;;;;;;41.85;23.33;;;;;;;6.79;100.00;102688.59;2090395;28;20040;-68
2021/10/09 02:26:29;;;;;;;44.70;23.23;;;;;;;6.78;100.00;102684.28;2106337;28;20032;-68
2021/10/09 02:27:30;;;;;;;46.80;22.57;;;;;;;6.72;100.00;102684.25;2108396;28;20051;-67
2021/10/09 02:28:30;;;;;;;47.73;24.90;;;;;;;6.75;100.00;102689.44;2108064;28;20024;-68
2021/10/09 02:29:30;;;;;;;41.67;22.83;;;;;;;6.72;100.00;102690.31;2107747;28;20032;-68
2021/10/09 02:30:31;;;;;;;47.37;24.70;;;;;;;6.72;100.00;102684.25;2107866;28;20104;-68
2021/10/09 02:31:31;;;;;;;49.97;23.83;;;;;;;6.70;100.00;102690.31;2107308;28;20099;-68
2021/10/09 02:32:31;;;;;;;48.47;23.20;;;;;;;6.69;100.00;102691.19;2107537;28;20024;-68
2021/10/09 02:33:32;;;;;;;50.30;24.90;;;;;;;6.65;100.00;102689.44;2107391;28;20036;-68
2021/10/09 02:34:32;;;;;;;44.40;22.10;;;;;;;6.67;100.00;102685.09;2107301;28;20107;-68
2021/10/09 02:35:33;;;;;;;49.60;24.73;;;;;;;6.67;100.00;102687.69;2108079;28;20097;-68
2021/10/09 02:36:33;;;;;;;48.15;25.33;;;;;;;6.62;100.00;102689.41;2107172;28;20429;-68
2021/10/09 02:37:33;;;;;;;47.43;23.63;;;;;;;6.59;100.00;102684.22;2107346;28;20016;-68
2021/10/09 02:38:34;;;;;;;41.40;22.83;;;;;;;6.58;100.00;102687.66;2107616;28;20024;-67
2021/10/09 02:39:34;;;;;;;39.70;23.33;;;;;;;6.56;100.00;102686.78;2107884;28;20024;-68
2021/10/09 02:40:38;;;;;;;43.10;21.67;;;;;;;6.55;100.00;102682.47;2107189;28;20163;-68
2021/10/09 02:41:39;;;;;;;41.70;21.10;;;;;;;6.59;100.00;102681.59;2107565;28;20092;-67
2021/10/09 02:42:39;;;;;;;45.53;23.23;;;;;;;6.62;100.00;102684.22;2108006;28;20484;-67
2021/10/09 02:43:40;;;;;;;43.42;22.70;;;;;;;6.62;100.00;102679.03;2106845;28;20116;-69
2021/10/09 02:44:40;;;;;;;48.57;24.87;;;;;;;6.64;100.00;102677.28;2106854;28;20024;-67
2021/10/09 02:45:40;;;;;;;52.30;27.53;;;;;;;6.70;100.00;102679.94;2107746;28;20019;-68
2021/10/09 02:46:41;;;;;;;46.40;25.27;;;;;;;6.73;100.00;102673.00;2106742;28;20427;-68
2021/10/09 02:47:41;;;;;;;47.63;24.40;;;;;;;6.72;100.00;102679.06;2106849;28;20034;-68
2021/10/09 02:48:41;;;;;;;56.87;26.03;;;;;;;6.68;100.00;102673.84;2107687;28;20071;-68
2021/10/09 02:49:41;;;;;;;47.70;23.67;;;;;;;6.65;100.00;102673.88;2107726;28;20028;-68
2021/10/09 02:50:43;;;;;;;46.30;24.40;;;;;;;6.62;100.00;102668.66;2108000;28;20031;-68
2021/10/09 02:51:44;;;;;;;47.33;25.17;;;;;;;6.63;100.00;102675.56;2107289;28;20084;-68
2021/10/09 02:52:44;;;;;;;47.40;24.10;;;;;;;6.63;100.00;102678.16;2106774;28;20090;-67
2021/10/09 02:53:44;;;;;;;50.97;26.00;;;;;;;6.59;100.00;102676.41;2106724;28;20070;-67
2021/10/09 02:54:45;;;;;;;47.10;25.17;;;;;;;6.53;100.00;102673.78;2106755;28;20431;-68
2021/10/09 02:55:45;;;;;;;53.67;24.23;;;;;;;6.52;100.00;102677.25;2107394;28;20059;-68
2021/10/09 02:56:45;;;;;;;43.43;23.87;;;;;;;6.49;100.00;102674.63;2107510;28;20115;-69
2021/10/09 02:57:47;;;;;;;44.57;23.17;;;;;;;6.48;100.00;102676.38;2108006;28;20022;-70
2021/10/09 02:58:47;;;;;;;50.67;23.45;;;;;;;6.46;100.00;102672.06;2107451;28;20024;-68
2021/10/09 02:59:47;;;;;;;54.13;25.30;;;;;;;6.47;100.00;102668.59;2107507;28;20111;-68
2021/10/09 03:00:47;;;;;;;45.73;22.53;;;;;;;6.46;100.00;102674.66;2107601;28;20028;-70
2021/10/09 03:01:48;;;;;;;42.90;22.80;;;;;;;6.43;100.00;102673.75;2108107;28;20024;-69
2021/10/09 03:02:48;;;;;;;47.97;23.90;;;;;;;6.42;100.00;102672.03;2107792;28;20024;-68
2021/10/09 03:03:48;;;;;;;47.70;23.40;;;;;;;6.40;100.00;102668.56;2107041;28;20070;-68
2021/10/09 03:04:49;;;;;;;49.23;25.20;;;;;;;6.41;100.00;102675.50;2106812;28;20027;-68
2021/10/09 03:05:49;;;;;;;47.30;25.60;;;;;;;6.40;100.00;102676.34;2107354;28;20027;-68
2021/10/09 03:06:49;;;;;;;46.53;24.20;;;;;;;6.40;100.00;102673.75;2107797;28;20027;-68
2021/10/09 03:07:49;;;;;;;47.53;22.57;;;;;;;6.36;100.00;102677.19;2108146;28;20052;-68
2021/10/09 03:08:49;;;;;;;48.70;23.67;;;;;;;6.33;100.00;102671.13;2107971;28;20497;-67
2021/10/09 03:09:50;;;;;;;49.70;22.97;;;;;;;6.32;100.00;102672.84;2108586;28;20112;-68
2021/10/09 03:10:50;;;;;;;50.40;23.03;;;;;;;6.30;100.00;102677.16;2108625;28;20084;-68
2021/10/09 03:11:50;;;;;;;41.07;21.67;;;;;;;6.30;100.00;102677.16;2107987;28;20027;-68
2021/10/09 03:12:50;;;;;;;48.53;22.80;;;;;;;6.26;100.00;102680.59;2107772;28;20020;-68
2021/10/09 03:13:51;;;;;;;50.73;25.27;;;;;;;6.27;100.00;102679.75;2107515;28;20024;-68
2021/10/09 03:14:51;;;;;;;49.70;24.70;;;;;;;6.26;100.00;102676.28;2107670;28;20032;-68
2021/10/09 03:15:52;;;;;;;46.83;22.98;;;;;;;6.25;100.00;102674.53;2108007;28;20039;-67
2021/10/09 03:16:52;;;;;;;44.20;21.00;;;;;;;6.26;100.00;102680.59;2107853;28;20452;-67
2021/10/09 03:17:52;;;;;;;43.47;20.20;;;;;;;6.29;100.00;102683.19;2107375;28;20028;-67
2021/10/09 03:18:53;;;;;;;46.83;23.50;;;;;;;6.34;100.00;102684.09;2106959;28;20101;-67
2021/10/09 03:19:53;;;;;;;52.97;24.33;;;;;;;6.38;100.00;102682.38;2106898;28;20036;-67
2021/10/09 03:20:53;;;;;;;48.30;24.03;;;;;;;6.37;100.00;102676.31;2107845;28;20059;-68
2021/10/09 03:21:53;;;;;;;46.27;23.83;;;;;;;6.35;100.00;102685.84;2107510;28;20028;-68
2021/10/09 03:22:54;;;;;;;52.57;25.23;;;;;;;6.34;100.00;102681.50;2107660;28;20032;-67
2021/10/09 03:23:54;;;;;;;51.77;23.07;;;;;;;6.35;100.00;102677.16;2107196;28;20031;-68
2021/10/09 03:24:54;;;;;;;50.30;24.73;;;;;;;6.29;100.00;102680.59;2107061;28;20020;-68
2021/10/09 03:25:54;;;;;;;49.50;24.63;;;;;;;6.25;100.00;102678.84;2098133;28;20028;-67
2021/10/09 03:26:54;;;;;;;46.93;22.77;;;;;;;6.25;100.00;102684.03;2106506;28;20111;-67
2021/10/09 03:27:55;;;;;;;49.40;25.20;;;;;;;6.29;100.00;102680.59;2107224;28;20063;-67
2021/10/09 03:28:55;;;;;;;42.93;23.93;;;;;;;6.28;100.00;102678.88;2107335;28;20062;-67
2021/10/09 03:29:55;;;;;;;44.60;24.53;;;;;;;6.30;100.00;102687.53;2106986;28;20527;-67
2021/10/09 03:30:56;;;;;;;51.80;22.57;;;;;;;6.29;100.00;102680.59;2107166;28;20496;-67
2021/10/09 03:31:56;;;;;;;49.07;24.60;;;;;;;6.31;100.00;102678.91;2107294;28;20107;-67
2021/10/09 03:32:56;;;;;;;49.27;23.63;;;;;;;6.25;100.00;102684.03;2107432;28;20028;-68
2021/10/09 03:33:56;;;;;;;46.53;25.63;;;;;;;6.22;100.00;102678.88;2107531;28;20043;-68
2021/10/09 03:34:57;;;;;;;47.80;24.23;;;;;;;6.20;100.00;102675.38;2107647;28;20028;-67
2021/10/09 03:35:57;;;;;;;48.90;23.47;;;;;;;6.17;100.00;102686.59;2107872;28;20035;-67
2021/10/09 03:36:57;;;;;;;45.87;23.03;;;;;;;6.16;100.00;102685.72;2106487;28;20036;-68
2021/10/09 03:37:58;;;;;;;51.90;24.37;;;;;;;6.13;100.00;102680.50;2107101;28;20023;-68
2021/10/09 03:38:58;;;;;;;47.47;23.98;;;;;;;6.12;100.00;102678.78;2107365;28;20023;-67
2021/10/09 03:40:02;;;;;;;40.80;22.47;;;;;;;6.10;100.00;102680.53;2107524;28;20031;-67
2021/10/09 03:41:08;;;;;;;47.65;22.42;;;;;;;6.09;100.00;102681.34;2107568;28;20286;-67
2021/10/09 03:43:17;;;;;;;43.65;23.42;;;;;;;6.13;100.00;102669.31;2107774;28;20148;-67
2021/10/09 03:44:18;;;;;;;46.47;22.83;;;;;;;6.13;100.00;102677.91;2107644;28;20020;-67
2021/10/09 03:46:27;;;;;;;47.17;24.80;;;;;;;6.12;100.00;102673.59;2107689;28;20043;-68
2021/10/09 03:49:53;;;;;;;49.03;25.00;;;;;;;6.08;100.00;102682.22;2101294;28;20039;-68
2021/10/09 03:53:23;;;;;;;39.65;23.42;;;;;;;6.11;100.00;102679.66;2106973;28;20077;-68
2021/10/09 03:54:24;;;;;;;53.50;24.97;;;;;;;6.09;100.00;102681.34;2106926;28;20024;-67
2021/10/09 03:55:24;;;;;;;46.53;23.20;;;;;;;6.06;100.00;102683.97;2106914;28;20024;-67
2021/10/09 03:56:24;;;;;;;49.80;23.97;;;;;;;6.05;100.00;102682.19;2106948;28;20027;-68
2021/10/09 03:57:24;;;;;;;54.93;24.03;;;;;;;6.04;100.00;102685.66;2107641;28;20032;-67
2021/10/09 03:58:25;;;;;;;44.43;22.47;;;;;;;6.03;100.00;102689.09;2106531;28;20085;-67
2021/10/09 03:59:25;;;;;;;50.42;23.58;;;;;;;6.01;100.00;102688.19;2106999;28;20020;-67
2021/10/09 04:00:26;;;;;;;44.10;22.87;;;;;;;5.98;100.00;102685.56;2107204;28;20024;-68
2021/10/09 04:01:26;;;;;;;45.50;21.33;;;;;;;5.98;100.00;102680.38;2107631;28;20082;-68
2021/10/09 04:02:26;;;;;;;51.87;24.93;;;;;;;6.00;100.00;102683.88;2107537;28;20016;-68
2021/10/09 04:03:26;;;;;;;54.90;23.93;;;;;;;5.98;100.00;102680.38;2107657;28;20055;-68
2021/10/09 04:04:28;;;;;;;51.03;24.37;;;;;;;5.99;100.00;102680.41;2107712;28;20035;-68
2021/10/09 04:05:29;;;;;;;48.92;23.48;;;;;;;5.99;100.00;102677.81;2107730;28;20028;-67
2021/10/09 04:06:30;;;;;;;48.00;23.80;;;;;;;5.99;100.00;102682.16;2107615;28;20370;-67
2021/10/09 04:07:31;;;;;;;50.60;23.80;;;;;;;5.97;100.00;102679.53;2107563;28;20027;-67
2021/10/09 04:08:31;;;;;;;50.20;23.23;;;;;;;5.97;100.00;102678.66;2107704;28;20066;-67
2021/10/09 04:09:31;;;;;;;50.33;23.13;;;;;;;5.98;100.00;102680.38;2107639;28;20024;-67
2021/10/09 04:10:34;;;;;;;48.70;23.73;;;;;;;5.96;100.00;102676.94;2107728;28;20457;-68
2021/10/09 04:11:34;;;;;;;53.35;24.75;;;;;;;5.96;100.00;102676.94;2107589;28;20024;-67
2021/10/09 04:12:35;;;;;;;53.87;26.37;;;;;;;5.99;100.00;102682.16;2107685;28;20552;-68
2021/10/09 04:13:35;;;;;;;49.45;24.42;;;;;;;6.00;100.00;102678.69;2107602;28;20112;-68
2021/10/09 04:14:36;;;;;;;51.77;24.80;;;;;;;6.01;100.00;102685.59;2107047;28;20059;-67
2021/10/09 04:15:36;;;;;;;57.70;26.13;;;;;;;6.01;100.00;102681.28;2106929;28;20034;-67
2021/10/09 04:16:36;;;;;;;46.10;24.50;;;;;;;6.00;100.00;102678.69;2107598;28;20027;-68
2021/10/09 04:17:37;;;;;;;54.03;24.23;;;;;;;5.97;100.00;102678.66;2107635;28;20023;-67
2021/10/09 04:18:37;;;;;;;49.37;25.77;;;;;;;5.99;100.00;102676.97;2106862;28;20021;-67
2021/10/09 04:19:37;;;;;;;50.17;24.90;;;;;;;5.99;100.00;102676.97;2107045;28;20028;-68
2021/10/09 04:20:38;;;;;;;50.03;25.67;;;;;;;5.95;100.00;102686.41;2107603;28;20433;-67
2021/10/09 04:21:38;;;;;;;50.15;25.75;;;;;;;5.98;100.00;102675.19;2107458;28;20485;-67
2021/10/09 04:22:39;;;;;;;52.13;26.37;;;;;;;6.02;100.00;102679.56;2107602;28;20027;-67
2021/10/09 04:23:39;;;;;;;48.47;24.00;;;;;;;6.01;100.00;102675.22;2107490;28;20031;-67
2021/10/09 04:24:39;;;;;;;50.93;24.87;;;;;;;6.01;100.00;102678.69;2107335;28;20443;-67
2021/10/09 04:25:39;;;;;;;43.53;22.10;;;;;;;6.01;100.00;102676.09;2107467;28;20016;-67
2021/10/09 04:26:40;;;;;;;48.90;24.57;;;;;;;6.03;100.00;102681.31;2107184;28;20052;-67
2021/10/09 04:27:40;;;;;;;46.13;24.07;;;;;;;6.01;100.00;102676.09;2107000;28;20020;-67
2021/10/09 04:28:40;;;;;;;52.40;25.13;;;;;;;6.03;100.00;102683.91;2107234;28;20165;-67
2021/10/09 04:29:41;;;;;;;56.23;27.20;;;;;;;6.01;100.00;102670.03;2107247;28;20016;-68
2021/10/09 04:30:41;;;;;;;53.50;27.57;;;;;;;6.00;100.00;102679.56;2107290;28;20099;-67
2021/10/09 04:31:41;;;;;;;51.77;24.83;;;;;;;5.97;100.00;102689.91;2106691;28;20070;-67
2021/10/09 04:32:42;;;;;;;49.10;23.37;;;;;;;6.00;100.00;102689.06;2106643;28;20053;-67
2021/10/09 04:33:42;;;;;;;56.43;24.73;;;;;;;6.01;100.00;102680.41;2106310;28;20044;-67
2021/10/09 04:34:42;;;;;;;53.23;26.10;;;;;;;6.04;100.00;102683.06;2107086;28;20024;-67
2021/10/09 04:35:43;;;;;;;54.90;26.87;;;;;;;6.02;100.00;102677.00;2107124;28;20444;-67
2021/10/09 04:36:43;;;;;;;48.37;23.73;;;;;;;6.03;100.00;102681.31;2106427;28;20119;-67
2021/10/09 04:37:43;;;;;;;55.07;26.90;;;;;;;6.04;100.00;102675.28;2106601;28;20016;-67
2021/10/09 04:38:44;;;;;;;51.33;26.93;;;;;;;6.05;100.00;102679.59;2106796;28;20023;-67
2021/10/09 04:39:44;;;;;;;55.03;25.70;;;;;;;6.07;100.00;102679.63;2107249;28;20077;-69
2021/10/09 04:40:44;;;;;;;49.30;24.77;;;;;;;6.06;100.00;102689.13;2106573;28;20030;-68
2021/10/09 04:41:44;;;;;;;56.20;26.00;;;;;;;6.05;100.00;102683.06;2106665;28;20182;-68
2021/10/09 04:42:45;;;;;;;47.20;23.23;;;;;;;6.03;100.00;102683.91;2106780;28;20016;-68
2021/10/09 04:43:45;;;;;;;52.33;25.03;;;;;;;6.01;100.00;102680.41;2106369;28;20020;-68
2021/10/09 04:44:45;;;;;;;55.93;26.10;;;;;;;5.99;100.00;102676.97;2106637;28;20058;-68
2021/10/09 04:45:45;;;;;;;46.53;24.30;;;;;;;5.97;100.00;102683.84;2106569;28;20042;-68
2021/10/09 04:46:46;;;;;;;46.40;22.63;;;;;;;5.97;100.00;102683.84;2107306;28;20445;-69
2021/10/09 04:47:46;;;;;;;51.70;24.77;;;;;;;6.00;100.00;102673.50;2107167;28;20020;-69
2021/10/09 04:48:46;;;;;;;54.90;25.10;;;;;;;5.99;100.00;102682.16;2106759;28;20069;-68
2021/10/09 04:49:46;;;;;;;49.23;24.20;;;;;;;5.97;100.00;102681.25;2107039;28;20125;-69
2021/10/09 04:50:47;;;;;;;47.60;24.13;;;;;;;5.97;100.00;102683.84;2106611;28;20390;-68
2021/10/09 04:51:47;;;;;;;54.63;26.90;;;;;;;5.98;100.00;102678.66;2107088;28;20056;-68